sensor_id;sensor_type;location;lat;lon;timestamp;pressure;altitude;pressure_sealevel;temperature;humidity
24858;BME280;12935;50.782;6.074;2023-04-06T00:00:48;99665.41;;;3.93;99.34
24858;BME280;12935;50.782;6.074;2023-04-06T00:03:14;99667.41;;;3.68;100.00
24858;BME280;12935;50.782;6.074;2023-04-06T00:05:39;99660.47;;;3.55;100.00
24858;BME280;12935;50.782;6.074;2023-04-06T00:08:05;99666.94;;;3.66;100.00
24858;BME280;12935;50.782;6.074;2023-04-06T00:10:31;99663.56;;;3.69;100.00
24858;BME280;12935;50.782;6.074;2023-04-06T00:12:58;99660.88;;;3.69;100.00
24858;BME280;12935;50.782;6.074;2023-04-06T00:15:23;99656.41;;;3.49;100.00
24858;BME280;12935;50.782;6.074;2023-04-06T00:17:49;99651.94;;;3.41;100.00
24858;BME280;12935;50.782;6.074;2023-04-06T00:20:15;99662.38;;;3.55;100.00
24858;BME280;12935;50.782;6.074;2023-04-06T00:22:40;99657.59;;;3.64;100.00
24858;BME280;12935;50.782;6.074;2023-04-06T00:25:06;99648.13;;;3.70;100.00
24858;BME280;12935;50.782;6.074;2023-04-06T00:27:31;99651.53;;;3.67;100.00
24858;BME280;12935;50.782;6.074;2023-04-06T00:29:57;99656.47;;;3.65;100.00
24858;BME280;12935;50.782;6.074;2023-04-06T00:32:22;99657.75;;;3.55;100.00
24858;BME280;12935;50.782;6.074;2023-04-06T00:34:47;99656.53;;;3.52;100.00
24858;BME280;12935;50.782;6.074;2023-04-06T00:37:12;99650.78;;;3.54;100.00
24858;BME280;12935;50.782;6.074;2023-04-06T00:39:38;99643.97;;;3.44;100.00
24858;BME280;12935;50.782;6.074;2023-04-06T00:42:12;99643.81;;;3.53;100.00
24858;BME280;12935;50.782;6.074;2023-04-06T00:44:41;99637.63;;;3.52;100.00
24858;BME280;12935;50.782;6.074;2023-04-06T00:47:07;99640.13;;;3.45;100.00
24858;BME280;12935;50.782;6.074;2023-04-06T00:49:33;99630.56;;;3.36;100.00
24858;BME280;12935;50.782;6.074;2023-04-06T00:51:58;99639.69;;;3.31;100.00
24858;BME280;12935;50.782;6.074;2023-04-06T00:54:24;99623.06;;;3.17;100.00
24858;BME280;12935;50.782;6.074;2023-04-06T00:56:50;99631.44;;;3.12;100.00
24858;BME280;12935;50.782;6.074;2023-04-06T00:59:15;99622.84;;;3.22;100.00
24858;BME280;12935;50.782;6.074;2023-04-06T01:01:40;99628.25;;;3.22;100.00
24858;BME280;12935;50.782;6.074;2023-04-06T01:04:06;99624.75;;;3.22;100.00
24858;BME280;12935;50.782;6.074;2023-04-06T01:06:31;99612.50;;;3.24;100.00
24858;BME280;12935;50.782;6.074;2023-04-06T01:08:56;99605.75;;;3.30;100.00
24858;BME280;12935;50.782;6.074;2023-04-06T01:11:21;99603.22;;;3.37;100.00
24858;BME280;12935;50.782;6.074;2023-04-06T01:13:47;99601.22;;;3.34;100.00
24858;BME280;12935;50.782;6.074;2023-04-06T01:16:12;99603.63;;;3.24;100.00
24858;BME280;12935;50.782;6.074;2023-04-06T01:18:38;99602.41;;;3.09;100.00
24858;BME280;12935;50.782;6.074;2023-04-06T01:21:03;99613.63;;;3.23;100.00
24858;BME280;12935;50.782;6.074;2023-04-06T01:23:29;99600.94;;;2.99;100.00
24858;BME280;12935;50.782;6.074;2023-04-06T01:25:54;99609.50;;;3.01;100.00
24858;BME280;12935;50.782;6.074;2023-04-06T01:28:20;99599.25;;;3.07;100.00
24858;BME280;12935;50.782;6.074;2023-04-06T01:30:45;99594.78;;;2.99;100.00
24858;BME280;12935;50.782;6.074;2023-04-06T01:33:11;99597.84;;;2.97;100.00
24858;BME280;12935;50.782;6.074;2023-04-06T01:35:36;99590.41;;;2.94;100.00
24858;BME280;12935;50.782;6.074;2023-04-06T01:38:02;99599.03;;;3.00;100.00
24858;BME280;12935;50.782;6.074;2023-04-06T01:40:27;99593.34;;;2.89;100.00
24858;BME280;12935;50.782;6.074;2023-04-06T01:42:52;99593.00;;;2.91;100.00
24858;BME280;12935;50.782;6.074;2023-04-06T01:45:17;99591.31;;;2.98;100.00
24858;BME280;12935;50.782;6.074;2023-04-06T01:47:43;99587.13;;;3.01;100.00
24858;BME280;12935;50.782;6.074;2023-04-06T01:50:08;99589.72;;;2.97;100.00
24858;BME280;12935;50.782;6.074;2023-04-06T01:52:34;99583.31;;;2.90;100.00
24858;BME280;12935;50.782;6.074;2023-04-06T01:54:59;99577.94;;;2.90;100.00
24858;BME280;12935;50.782;6.074;2023-04-06T01:57:24;99580.41;;;2.95;100.00
24858;BME280;12935;50.782;6.074;2023-04-06T01:59:50;99579.69;;;3.10;100.00
24858;BME280;12935;50.782;6.074;2023-04-06T02:02:16;99565.03;;;2.83;100.00
24858;BME280;12935;50.782;6.074;2023-04-06T02:04:41;99586.16;;;2.57;100.00
24858;BME280;12935;50.782;6.074;2023-04-06T02:07:06;99571.22;;;2.59;100.00
24858;BME280;12935;50.782;6.074;2023-04-06T02:09:32;99572.31;;;2.70;100.00
24858;BME280;12935;50.782;6.074;2023-04-06T02:11:57;99571.19;;;2.83;100.00
24858;BME280;12935;50.782;6.074;2023-04-06T02:14:25;99568.25;;;2.89;100.00
24858;BME280;12935;50.782;6.074;2023-04-06T02:16:50;99557.56;;;2.92;100.00
24858;BME280;12935;50.782;6.074;2023-04-06T02:19:16;99575.00;;;2.95;100.00
24858;BME280;12935;50.782;6.074;2023-04-06T02:21:41;99569.84;;;2.77;100.00
24858;BME280;12935;50.782;6.074;2023-04-06T02:24:07;99567.19;;;2.65;100.00
24858;BME280;12935;50.782;6.074;2023-04-06T02:26:32;99570.78;;;2.57;100.00
24858;BME280;12935;50.782;6.074;2023-04-06T02:28:57;99572.31;;;2.70;100.00
24858;BME280;12935;50.782;6.074;2023-04-06T02:31:22;99569.09;;;2.65;100.00
24858;BME280;12935;50.782;6.074;2023-04-06T02:33:49;99556.94;;;2.59;100.00
24858;BME280;12935;50.782;6.074;2023-04-06T02:36:14;99548.50;;;2.72;100.00
24858;BME280;12935;50.782;6.074;2023-04-06T02:38:40;99554.09;;;2.92;100.00
24858;BME280;12935;50.782;6.074;2023-04-06T02:41:05;99543.19;;;2.88;100.00
24858;BME280;12935;50.782;6.074;2023-04-06T02:43:30;99551.94;;;2.85;100.00
24858;BME280;12935;50.782;6.074;2023-04-06T02:45:56;99534.03;;;2.65;100.00
24858;BME280;12935;50.782;6.074;2023-04-06T02:48:21;99541.63;;;2.75;100.00
24858;BME280;12935;50.782;6.074;2023-04-06T02:50:46;99542.88;;;2.77;100.00
24858;BME280;12935;50.782;6.074;2023-04-06T02:53:12;99537.50;;;2.65;100.00
24858;BME280;12935;50.782;6.074;2023-04-06T02:55:37;99535.22;;;2.79;100.00
24858;BME280;12935;50.782;6.074;2023-04-06T02:58:02;99536.03;;;2.80;100.00
24858;BME280;12935;50.782;6.074;2023-04-06T03:00:27;99526.69;;;2.77;100.00
24858;BME280;12935;50.782;6.074;2023-04-06T03:02:53;99527.78;;;2.89;100.00
24858;BME280;12935;50.782;6.074;2023-04-06T03:05:18;99534.31;;;2.88;100.00
24858;BME280;12935;50.782;6.074;2023-04-06T03:07:43;99527.13;;;2.79;100.00
24858;BME280;12935;50.782;6.074;2023-04-06T03:10:09;99525.41;;;2.87;100.00
24858;BME280;12935;50.782;6.074;2023-04-06T03:12:34;99524.63;;;2.87;100.00
24858;BME280;12935;50.782;6.074;2023-04-06T03:15:00;99527.59;;;2.81;100.00
24858;BME280;12935;50.782;6.074;2023-04-06T03:17:25;99532.06;;;2.90;100.00
24858;BME280;12935;50.782;6.074;2023-04-06T03:19:51;99529.06;;;2.79;100.00
24858;BME280;12935;50.782;6.074;2023-04-06T03:22:16;99517.59;;;2.82;100.00
24858;BME280;12935;50.782;6.074;2023-04-06T03:24:41;99520.97;;;2.79;100.00
24858;BME280;12935;50.782;6.074;2023-04-06T03:27:06;99527.22;;;2.95;100.00
24858;BME280;12935;50.782;6.074;2023-04-06T03:29:32;99533.19;;;3.16;100.00
24858;BME280;12935;50.782;6.074;2023-04-06T03:31:57;99531.41;;;3.21;100.00
24858;BME280;12935;50.782;6.074;2023-04-06T03:34:22;99525.19;;;3.20;100.00
24858;BME280;12935;50.782;6.074;2023-04-06T03:36:47;99520.94;;;3.19;100.00
24858;BME280;12935;50.782;6.074;2023-04-06T03:39:13;99529.41;;;3.33;100.00
24858;BME280;12935;50.782;6.074;2023-04-06T03:41:38;99516.72;;;3.34;100.00
24858;BME280;12935;50.782;6.074;2023-04-06T03:44:05;99533.47;;;3.39;100.00
24858;BME280;12935;50.782;6.074;2023-04-06T03:46:30;99527.16;;;3.35;100.00
24858;BME280;12935;50.782;6.074;2023-04-06T03:48:55;99512.03;;;3.18;100.00
24858;BME280;12935;50.782;6.074;2023-04-06T03:51:21;99518.22;;;3.19;100.00
24858;BME280;12935;50.782;6.074;2023-04-06T03:53:46;99510.47;;;3.17;100.00
24858;BME280;12935;50.782;6.074;2023-04-06T03:56:11;99514.41;;;3.20;100.00
24858;BME280;12935;50.782;6.074;2023-04-06T03:58:37;99520.28;;;3.38;100.00
24858;BME280;12935;50.782;6.074;2023-04-06T04:01:02;99507.34;;;3.43;100.00
24858;BME280;12935;50.782;6.074;2023-04-06T04:03:27;99512.03;;;3.46;100.00
24858;BME280;12935;50.782;6.074;2023-04-06T04:05:53;99509.25;;;3.43;100.00
24858;BME280;12935;50.782;6.074;2023-04-06T04:08:20;99518.81;;;3.40;100.00
24858;BME280;12935;50.782;6.074;2023-04-06T04:10:46;99525.47;;;3.43;100.00
24858;BME280;12935;50.782;6.074;2023-04-06T04:13:11;99519.34;;;3.30;100.00
24858;BME280;12935;50.782;6.074;2023-04-06T04:15:36;99518.69;;;3.21;100.00
24858;BME280;12935;50.782;6.074;2023-04-06T04:18:02;99526.00;;;3.21;100.00
24858;BME280;12935;50.782;6.074;2023-04-06T04:20:27;99522.09;;;3.34;100.00
24858;BME280;12935;50.782;6.074;2023-04-06T04:22:53;99518.44;;;3.26;100.00
24858;BME280;12935;50.782;6.074;2023-04-06T04:25:18;99523.78;;;3.38;100.00
24858;BME280;12935;50.782;6.074;2023-04-06T04:27:44;99522.34;;;3.57;100.00
24858;BME280;12935;50.782;6.074;2023-04-06T04:30:10;99522.47;;;3.76;100.00
24858;BME280;12935;50.782;6.074;2023-04-06T04:32:35;99525.00;;;4.00;100.00
24858;BME280;12935;50.782;6.074;2023-04-06T04:35:01;99522.63;;;4.14;100.00
24858;BME280;12935;50.782;6.074;2023-04-06T04:37:26;99517.66;;;4.32;100.00
24858;BME280;12935;50.782;6.074;2023-04-06T04:39:51;99479.59;;;4.25;100.00
24858;BME280;12935;50.782;6.074;2023-04-06T04:42:16;99523.69;;;4.61;98.18
24858;BME280;12935;50.782;6.074;2023-04-06T04:44:42;99516.25;;;4.73;95.78
24858;BME280;12935;50.782;6.074;2023-04-06T04:47:07;99513.28;;;4.78;96.07
24858;BME280;12935;50.782;6.074;2023-04-06T04:49:32;99510.72;;;4.85;97.09
24858;BME280;12935;50.782;6.074;2023-04-06T04:51:57;99511.84;;;5.04;93.68
24858;BME280;12935;50.782;6.074;2023-04-06T04:54:23;99513.16;;;5.10;93.31
24858;BME280;12935;50.782;6.074;2023-04-06T04:56:48;99514.00;;;5.14;95.46
24858;BME280;12935;50.782;6.074;2023-04-06T04:59:13;99506.59;;;5.11;96.98
24858;BME280;12935;50.782;6.074;2023-04-06T05:01:38;99523.56;;;5.27;98.85
24858;BME280;12935;50.782;6.074;2023-04-06T05:04:04;99509.31;;;5.30;97.07
24858;BME280;12935;50.782;6.074;2023-04-06T05:06:29;99514.06;;;5.37;94.41
24858;BME280;12935;50.782;6.074;2023-04-06T05:08:55;99517.56;;;5.37;93.54
24858;BME280;12935;50.782;6.074;2023-04-06T05:11:20;99510.56;;;5.36;93.28
24858;BME280;12935;50.782;6.074;2023-04-06T05:13:46;99510.78;;;5.47;92.86
24858;BME280;12935;50.782;6.074;2023-04-06T05:16:11;99505.44;;;5.50;91.73
24858;BME280;12935;50.782;6.074;2023-04-06T05:18:37;99512.91;;;5.57;89.43
24858;BME280;12935;50.782;6.074;2023-04-06T05:21:02;99505.81;;;5.72;85.20
24858;BME280;12935;50.782;6.074;2023-04-06T05:23:27;99513.41;;;5.85;80.97
24858;BME280;12935;50.782;6.074;2023-04-06T05:25:53;99515.59;;;5.99;78.22
24858;BME280;12935;50.782;6.074;2023-04-06T05:28:18;99503.31;;;6.05;76.01
24858;BME280;12935;50.782;6.074;2023-04-06T05:30:44;99514.81;;;6.21;72.75
24858;BME280;12935;50.782;6.074;2023-04-06T05:33:11;99513.28;;;6.24;70.54
24858;BME280;12935;50.782;6.074;2023-04-06T05:35:37;99501.38;;;6.32;70.59
24858;BME280;12935;50.782;6.074;2023-04-06T05:38:02;99503.06;;;6.40;67.23
24858;BME280;12935;50.782;6.074;2023-04-06T05:40:27;99496.22;;;6.50;65.54
24858;BME280;12935;50.782;6.074;2023-04-06T05:42:52;99492.13;;;6.59;65.32
24858;BME280;12935;50.782;6.074;2023-04-06T05:45:18;99495.28;;;6.65;63.83
24858;BME280;12935;50.782;6.074;2023-04-06T05:47:44;99499.25;;;6.71;62.85
24858;BME280;12935;50.782;6.074;2023-04-06T05:50:11;99504.38;;;6.76;62.38
24858;BME280;12935;50.782;6.074;2023-04-06T05:52:36;99497.81;;;6.81;62.60
24858;BME280;12935;50.782;6.074;2023-04-06T05:55:02;99490.16;;;6.86;62.00
24858;BME280;12935;50.782;6.074;2023-04-06T05:57:28;99506.19;;;6.98;60.97
24858;BME280;12935;50.782;6.074;2023-04-06T05:59:53;99510.59;;;7.07;60.87
24858;BME280;12935;50.782;6.074;2023-04-06T06:02:18;99506.78;;;7.15;60.52
24858;BME280;12935;50.782;6.074;2023-04-06T06:04:44;99504.59;;;7.24;60.89
24858;BME280;12935;50.782;6.074;2023-04-06T06:07:09;99511.69;;;7.35;59.76
24858;BME280;12935;50.782;6.074;2023-04-06T06:09:34;99505.53;;;7.38;59.67
24858;BME280;12935;50.782;6.074;2023-04-06T06:12:03;99511.03;;;7.46;59.08
24858;BME280;12935;50.782;6.074;2023-04-06T06:14:28;99509.59;;;7.55;59.93
24858;BME280;12935;50.782;6.074;2023-04-06T06:16:54;99513.19;;;7.66;58.77
24858;BME280;12935;50.782;6.074;2023-04-06T06:19:19;99505.44;;;7.68;58.23
24858;BME280;12935;50.782;6.074;2023-04-06T06:21:44;99505.88;;;7.74;58.62
24858;BME280;12935;50.782;6.074;2023-04-06T06:24:10;99506.31;;;7.80;57.94
24858;BME280;12935;50.782;6.074;2023-04-06T06:26:35;99497.47;;;7.90;58.22
24858;BME280;12935;50.782;6.074;2023-04-06T06:29:02;99496.38;;;7.98;57.99
24858;BME280;12935;50.782;6.074;2023-04-06T06:31:28;99506.19;;;8.09;57.94
24858;BME280;12935;50.782;6.074;2023-04-06T06:33:53;99498.88;;;8.17;57.81
24858;BME280;12935;50.782;6.074;2023-04-06T06:36:18;99507.44;;;8.23;57.66
24858;BME280;12935;50.782;6.074;2023-04-06T06:38:44;99507.44;;;8.23;57.68
24858;BME280;12935;50.782;6.074;2023-04-06T06:41:10;99510.31;;;8.33;57.73
24858;BME280;12935;50.782;6.074;2023-04-06T06:43:36;99508.41;;;8.41;57.76
24858;BME280;12935;50.782;6.074;2023-04-06T06:46:01;99511.56;;;8.47;57.07
24858;BME280;12935;50.782;6.074;2023-04-06T06:48:26;99500.66;;;8.50;57.57
24858;BME280;12935;50.782;6.074;2023-04-06T06:50:52;99500.66;;;8.47;57.48
24858;BME280;12935;50.782;6.074;2023-04-06T06:53:17;99509.31;;;8.59;57.51
24858;BME280;12935;50.782;6.074;2023-04-06T06:55:42;99513.25;;;8.72;57.79
24858;BME280;12935;50.782;6.074;2023-04-06T06:58:09;99513.28;;;8.76;57.34
24858;BME280;12935;50.782;6.074;2023-04-06T07:00:34;99499.28;;;8.74;57.08
24858;BME280;12935;50.782;6.074;2023-04-06T07:03:00;99495.75;;;8.73;57.45
24858;BME280;12935;50.782;6.074;2023-04-06T07:05:25;99494.56;;;8.67;57.39
24858;BME280;12935;50.782;6.074;2023-04-06T07:07:51;99505.44;;;8.67;57.42
24858;BME280;12935;50.782;6.074;2023-04-06T07:10:17;99494.19;;;8.72;57.56
24858;BME280;12935;50.782;6.074;2023-04-06T07:12:42;99503.88;;;8.66;58.10
24858;BME280;12935;50.782;6.074;2023-04-06T07:15:08;99491.91;;;8.78;57.81
24858;BME280;12935;50.782;6.074;2023-04-06T07:17:33;99490.66;;;8.61;58.88
24858;BME280;12935;50.782;6.074;2023-04-06T07:19:58;99496.91;;;8.72;59.11
24858;BME280;12935;50.782;6.074;2023-04-06T07:22:24;99499.38;;;8.95;58.55
24858;BME280;12935;50.782;6.074;2023-04-06T07:24:49;99497.34;;;8.82;58.95
24858;BME280;12935;50.782;6.074;2023-04-06T07:27:15;99499.41;;;9.02;58.17
24858;BME280;12935;50.782;6.074;2023-04-06T07:29:41;99499.84;;;9.15;58.20
24858;BME280;12935;50.782;6.074;2023-04-06T07:32:06;99496.38;;;9.25;57.71
24858;BME280;12935;50.782;6.074;2023-04-06T07:34:32;99490.94;;;9.29;56.98
24858;BME280;12935;50.782;6.074;2023-04-06T07:36:57;99505.78;;;9.38;57.45
24858;BME280;12935;50.782;6.074;2023-04-06T07:39:23;99475.75;;;9.35;56.77
24858;BME280;12935;50.782;6.074;2023-04-06T07:41:48;99487.78;;;9.12;57.89
24858;BME280;12935;50.782;6.074;2023-04-06T07:44:13;99497.13;;;9.19;58.13
24858;BME280;12935;50.782;6.074;2023-04-06T07:46:38;99485.50;;;9.32;57.85
24858;BME280;12935;50.782;6.074;2023-04-06T07:49:04;99485.56;;;9.54;57.06
24858;BME280;12935;50.782;6.074;2023-04-06T07:51:30;99494.94;;;9.74;56.82
24858;BME280;12935;50.782;6.074;2023-04-06T07:53:56;99486.38;;;9.86;56.05
24858;BME280;12935;50.782;6.074;2023-04-06T07:56:21;99488.34;;;9.89;55.58
24858;BME280;12935;50.782;6.074;2023-04-06T07:58:46;99491.06;;;9.96;55.83
24858;BME280;12935;50.782;6.074;2023-04-06T08:01:12;99485.59;;;9.93;56.21
24858;BME280;12935;50.782;6.074;2023-04-06T08:03:38;99486.75;;;9.81;56.08
24858;BME280;12935;50.782;6.074;2023-04-06T08:06:04;99485.97;;;9.84;56.50
24858;BME280;12935;50.782;6.074;2023-04-06T08:08:30;99482.88;;;10.10;55.93
24858;BME280;12935;50.782;6.074;2023-04-06T08:10:55;99482.09;;;10.10;55.29
24858;BME280;12935;50.782;6.074;2023-04-06T08:13:21;99482.91;;;10.21;54.43
24858;BME280;12935;50.782;6.074;2023-04-06T08:15:46;99493.44;;;10.33;54.58
24858;BME280;12935;50.782;6.074;2023-04-06T08:18:12;99500.81;;;10.47;54.31
24858;BME280;12935;50.782;6.074;2023-04-06T08:20:38;99493.41;;;10.44;53.84
24858;BME280;12935;50.782;6.074;2023-04-06T08:23:04;99499.63;;;10.66;54.41
24858;BME280;12935;50.782;6.074;2023-04-06T08:25:29;99492.16;;;10.80;52.98
24858;BME280;12935;50.782;6.074;2023-04-06T08:27:55;99497.69;;;10.41;52.91
24858;BME280;12935;50.782;6.074;2023-04-06T08:30:20;99499.63;;;10.62;53.50
24858;BME280;12935;50.782;6.074;2023-04-06T08:32:46;99501.53;;;10.83;52.87
24858;BME280;12935;50.782;6.074;2023-04-06T08:35:12;99493.72;;;10.85;52.21
24858;BME280;12935;50.782;6.074;2023-04-06T08:37:37;99488.22;;;10.96;52.08
24858;BME280;12935;50.782;6.074;2023-04-06T08:40:02;99494.84;;;10.95;52.58
24858;BME280;12935;50.782;6.074;2023-04-06T08:42:31;99496.88;;;10.69;52.22
24858;BME280;12935;50.782;6.074;2023-04-06T08:44:57;99503.44;;;10.93;51.92
24858;BME280;12935;50.782;6.074;2023-04-06T08:47:22;99505.78;;;11.02;51.86
24858;BME280;12935;50.782;6.074;2023-04-06T08:49:48;99498.41;;;10.81;52.68
24858;BME280;12935;50.782;6.074;2023-04-06T08:52:18;99501.88;;;10.99;52.42
24858;BME280;12935;50.782;6.074;2023-04-06T08:54:43;99505.78;;;10.95;52.27
24858;BME280;12935;50.782;6.074;2023-04-06T08:57:08;99510.88;;;10.93;52.37
24858;BME280;12935;50.782;6.074;2023-04-06T08:59:34;99504.56;;;11.10;52.58
24858;BME280;12935;50.782;6.074;2023-04-06T09:02:03;99502.72;;;10.75;52.25
24858;BME280;12935;50.782;6.074;2023-04-06T09:04:28;99503.00;;;11.05;51.82
24858;BME280;12935;50.782;6.074;2023-04-06T09:06:54;99512.31;;;11.25;50.94
24858;BME280;12935;50.782;6.074;2023-04-06T09:09:19;99511.53;;;11.21;50.88
24858;BME280;12935;50.782;6.074;2023-04-06T09:11:47;99511.97;;;11.13;50.94
24858;BME280;12935;50.782;6.074;2023-04-06T09:14:12;99511.69;;;10.79;51.82
24858;BME280;12935;50.782;6.074;2023-04-06T09:16:39;99513.69;;;10.57;52.76
24858;BME280;12935;50.782;6.074;2023-04-06T09:19:05;99513.63;;;10.71;53.40
24858;BME280;12935;50.782;6.074;2023-04-06T09:21:31;99524.19;;;10.80;53.72
24858;BME280;12935;50.782;6.074;2023-04-06T09:24:00;99522.63;;;10.72;53.16
24858;BME280;12935;50.782;6.074;2023-04-06T09:26:26;99522.63;;;10.75;52.88
24858;BME280;12935;50.782;6.074;2023-04-06T09:28:57;99524.88;;;11.09;53.02
24858;BME280;12935;50.782;6.074;2023-04-06T09:31:25;99515.91;;;11.05;52.59
24858;BME280;12935;50.782;6.074;2023-04-06T09:33:51;99517.88;;;11.01;52.90
24858;BME280;12935;50.782;6.074;2023-04-06T09:36:20;99517.06;;;11.07;51.98
24858;BME280;12935;50.782;6.074;2023-04-06T09:39:04;99510.13;;;10.85;52.90
24858;BME280;12935;50.782;6.074;2023-04-06T09:41:31;99524.81;;;11.23;52.22
24858;BME280;12935;50.782;6.074;2023-04-06T09:44:07;99524.88;;;11.16;52.92
24858;BME280;12935;50.782;6.074;2023-04-06T09:46:36;99522.13;;;11.09;52.60
24858;BME280;12935;50.782;6.074;2023-04-06T09:49:02;99525.72;;;10.88;52.69
24858;BME280;12935;50.782;6.074;2023-04-06T09:51:31;99524.81;;;11.30;52.25
24858;BME280;12935;50.782;6.074;2023-04-06T09:54:01;99520.28;;;11.72;51.70
24858;BME280;12935;50.782;6.074;2023-04-06T09:56:51;99519.50;;;11.71;51.44
24858;BME280;12935;50.782;6.074;2023-04-06T09:59:27;99516.66;;;11.89;50.60
24858;BME280;12935;50.782;6.074;2023-04-06T10:01:57;99511.47;;;12.05;51.34
24858;BME280;12935;50.782;6.074;2023-04-06T10:04:39;99520.06;;;12.07;51.12
24858;BME280;12935;50.782;6.074;2023-04-06T10:07:06;99518.09;;;12.08;51.57
24858;BME280;12935;50.782;6.074;2023-04-06T10:09:35;99525.81;;;12.23;51.45
24858;BME280;12935;50.782;6.074;2023-04-06T10:12:03;99528.31;;;12.48;51.20
24858;BME280;12935;50.782;6.074;2023-04-06T10:14:30;99520.13;;;12.45;50.62
24858;BME280;12935;50.782;6.074;2023-04-06T10:16:56;99527.13;;;12.53;51.18
24858;BME280;12935;50.782;6.074;2023-04-06T10:19:34;99522.94;;;12.38;51.55
24858;BME280;12935;50.782;6.074;2023-04-06T10:22:05;99527.41;;;11.51;52.68
24858;BME280;12935;50.782;6.074;2023-04-06T10:24:33;99524.81;;;11.19;54.76
24858;BME280;12935;50.782;6.074;2023-04-06T10:27:01;99522.91;;;11.16;55.87
24858;BME280;12935;50.782;6.074;2023-04-06T10:29:27;99508.06;;;11.07;55.58
24858;BME280;12935;50.782;6.074;2023-04-06T10:31:52;99533.41;;;11.21;56.00
24858;BME280;12935;50.782;6.074;2023-04-06T10:34:18;99528.59;;;11.50;56.21
24858;BME280;12935;50.782;6.074;2023-04-06T10:36:43;99527.41;;;11.55;55.95
24858;BME280;12935;50.782;6.074;2023-04-06T10:39:08;99532.00;;;11.76;55.25
24858;BME280;12935;50.782;6.074;2023-04-06T10:41:44;99537.81;;;11.85;54.00
24858;BME280;12935;50.782;6.074;2023-04-06T10:44:21;99523.31;;;11.91;53.61
24858;BME280;12935;50.782;6.074;2023-04-06T10:46:55;99524.81;;;12.00;53.48
24858;BME280;12935;50.782;6.074;2023-04-06T10:49:20;99531.22;;;11.68;54.57
24858;BME280;12935;50.782;6.074;2023-04-06T10:51:51;99523.63;;;11.97;54.07
24858;BME280;12935;50.782;6.074;2023-04-06T10:54:17;99524.34;;;12.12;52.87
24858;BME280;12935;50.782;6.074;2023-04-06T10:56:43;99532.72;;;11.87;53.42
24858;BME280;12935;50.782;6.074;2023-04-06T10:59:09;99522.03;;;11.34;55.36
24858;BME280;12935;50.782;6.074;2023-04-06T11:01:34;99517.50;;;10.95;57.40
24858;BME280;12935;50.782;6.074;2023-04-06T11:03:59;99506.66;;;10.60;58.70
24858;BME280;12935;50.782;6.074;2023-04-06T11:06:26;99507.44;;;10.60;60.78
24858;BME280;12935;50.782;6.074;2023-04-06T11:08:54;99505.09;;;10.55;60.91
24858;BME280;12935;50.782;6.074;2023-04-06T11:11:22;99510.13;;;10.81;61.00
24858;BME280;12935;50.782;6.074;2023-04-06T11:13:53;99510.50;;;10.83;61.82
24858;BME280;12935;50.782;6.074;2023-04-06T11:16:31;99506.56;;;10.95;61.32
24858;BME280;12935;50.782;6.074;2023-04-06T11:19:03;99497.53;;;11.05;61.92
24858;BME280;12935;50.782;6.074;2023-04-06T11:21:33;99513.94;;;11.05;62.50
24858;BME280;12935;50.782;6.074;2023-04-06T11:27:10;99506.44;;;11.31;61.57
24858;BME280;12935;50.782;6.074;2023-04-06T11:29:37;99508.31;;;11.41;60.86
24858;BME280;12935;50.782;6.074;2023-04-06T11:32:06;99512.47;;;11.70;60.28
24858;BME280;12935;50.782;6.074;2023-04-06T11:34:35;99503.41;;;11.84;60.67
24858;BME280;12935;50.782;6.074;2023-04-06T11:37:09;99508.88;;;11.04;64.81
24858;BME280;12935;50.782;6.074;2023-04-06T11:39:40;99502.75;;;10.61;68.68
24858;BME280;12935;50.782;6.074;2023-04-06T11:42:05;99500.44;;;10.31;72.46
24858;BME280;12935;50.782;6.074;2023-04-06T11:44:33;99499.66;;;10.41;73.47
24858;BME280;12935;50.782;6.074;2023-04-06T11:46:59;99501.94;;;10.71;72.74
24858;BME280;12935;50.782;6.074;2023-04-06T11:49:29;99498.75;;;10.90;71.68
24858;BME280;12935;50.782;6.074;2023-04-06T11:51:55;99500.75;;;10.79;72.90
24858;BME280;12935;50.782;6.074;2023-04-06T11:54:34;99496.41;;;10.99;72.13
24858;BME280;12935;50.782;6.074;2023-04-06T11:57:01;99498.84;;;10.69;75.77
24858;BME280;12935;50.782;6.074;2023-04-06T11:59:27;99491.03;;;10.57;78.22
24858;BME280;12935;50.782;6.074;2023-04-06T12:01:53;99493.81;;;10.39;81.37
24858;BME280;12935;50.782;6.074;2023-04-06T12:04:18;99496.53;;;10.42;84.87
24858;BME280;12935;50.782;6.074;2023-04-06T12:06:43;99492.97;;;10.67;80.91
24858;BME280;12935;50.782;6.074;2023-04-06T12:09:09;99481.22;;;10.80;78.61
24858;BME280;12935;50.782;6.074;2023-04-06T12:11:34;99492.16;;;10.84;82.01
24858;BME280;12935;50.782;6.074;2023-04-06T12:14:00;99490.59;;;10.76;82.97
24858;BME280;12935;50.782;6.074;2023-04-06T12:16:29;99485.44;;;11.06;80.54
24858;BME280;12935;50.782;6.074;2023-04-06T12:18:55;99488.88;;;11.24;79.07
24858;BME280;12935;50.782;6.074;2023-04-06T12:21:21;99486.13;;;11.28;78.09
24858;BME280;12935;50.782;6.074;2023-04-06T12:23:46;99501.81;;;11.06;77.95
24858;BME280;12935;50.782;6.074;2023-04-06T12:26:11;99501.41;;;11.15;78.06
24858;BME280;12935;50.782;6.074;2023-04-06T12:28:36;99488.56;;;11.05;78.16
24858;BME280;12935;50.782;6.074;2023-04-06T12:31:02;99493.28;;;10.94;80.62
24858;BME280;12935;50.782;6.074;2023-04-06T12:33:27;99483.59;;;10.71;82.99
24858;BME280;12935;50.782;6.074;2023-04-06T12:35:52;99483.63;;;10.68;87.61
24858;BME280;12935;50.782;6.074;2023-04-06T12:38:18;99484.41;;;10.65;84.95
24858;BME280;12935;50.782;6.074;2023-04-06T12:40:43;99476.97;;;10.69;83.98
24858;BME280;12935;50.782;6.074;2023-04-06T12:43:08;99482.88;;;10.49;84.87
24858;BME280;12935;50.782;6.074;2023-04-06T12:45:34;99481.31;;;10.31;88.29
24858;BME280;12935;50.782;6.074;2023-04-06T12:47:59;99471.56;;;10.40;88.62
24858;BME280;12935;50.782;6.074;2023-04-06T12:50:24;99478.59;;;10.34;87.55
24858;BME280;12935;50.782;6.074;2023-04-06T12:52:51;99465.34;;;10.33;88.88
24858;BME280;12935;50.782;6.074;2023-04-06T12:55:16;99463.41;;;10.19;90.97
24858;BME280;12935;50.782;6.074;2023-04-06T12:57:42;99465.72;;;10.35;89.55
24858;BME280;12935;50.782;6.074;2023-04-06T13:00:08;99466.13;;;10.33;91.29